Weather at Capitan D Daniel Vazquez Airport

Public forecast

Using degrees Celsius for public forecast. Weather courtesy of forecast.io.

Closest aviation weather report (METAR) to Capitan D Daniel Vazquez Airport

Closest report is Piloto Civil N. Fern├índez Airport, 149.8 nm (277.4 km) SSW.

2024/06/20 12:33 (retrieved 23 minutes ago)

SAWG 201233Z 22005KT 0400 R25/P2000N BCFG NSC M16/M18 Q1024

Closest aviation forecast (TAF) to Capitan D Daniel Vazquez Airport

Closest forecast is Piloto Civil N. Fern├índez Airport, 149.8 nm (277.4 km) SSW.

2024/06/20 12:00 (retrieved 56 minutes ago)

TAF SAWG 201100Z 2012/2112 23010KT 9999 VCFG SCT008 OVC070 TXM05/2018Z TNM08/2107Z BECMG 2013/2015 VRB03KT 9999 NSW SCT025